トロムソ の空港の天気 - METARとTAF

トロムソ空港 ( ENTC / TOS ) - ノルウェー トロムス県トロムソ
飛行場実況気象(Metar)
観測時間03/30 14:20 CEST (03/30 12:20 UTC)
風向・風速南南西 4m/s
視程10km以上
天気現象弱い雪
少しの雲 雲底高度 210m
全天の8割程度の雲 雲底高度 610m
気温-3℃
湿度80%
気圧1012hPa
METARENTC 301220Z 20007KT 150V260 9999 5000S -SN FEW007 BKN020 M03/M06 Q1012 TEMPO 31015KT 0800 SHSN VV006 RMK WIND 2600FT 29016KT
過去の天気等 Google飛行場航空写真 Wunderground天気予報

過去48時間のMETAR

飛行場予報(TAF)
発表時間: -
30日14時 CEST ~ 30日20時 CEST に一時的に
風向・風速西北西 8m/s 瞬間風速 13m/s
30日14時 CEST ~ 31日2時 CEST に一時的に
視程800m
天気現象しゅう雪
全天を覆う雲 鉛直視程 180m
TAF ENTC 3012/3112 20008KT 9999 FEW012CB BKN030
TEMPO 3012/3018 30015G25KT
TEMPO 3012/3024 0800 SHSN VV006